Time;durP1;ratioP1;P1;durP2;ratioP2;P2;SDS_P1;SDS_P2;PMS_P1;PMS_P2;Temp;Humidity;BMP_temperature;BMP_pressure;BME280_temperature;BME280_humidity;BME280_pressure;Samples;Min_cycle;Max_cycle;Signal;HPM_P1;HPM_P2
2022/11/26 00:00:25;;;;;;;12.10;7.75;;;;;;;7.01;52.47;101862.91;5068746;28;20371;-75
2022/11/26 00:02:53;;;;;;;17.70;11.40;;;;;;;7.02;52.29;101854.88;5047575;28;20392;-75
2022/11/26 00:05:19;;;;;;;14.15;9.20;;;;;;;7.06;52.24;101864.22;5060196;28;20531;-74
2022/11/26 00:07:54;;;;;;;12.73;8.45;;;;;;;7.05;52.69;101867.78;5061156;28;20418;-74
2022/11/26 00:10:25;;;;;;;12.55;8.57;;;;;;;6.96;52.59;101870.31;5063366;28;20419;-75
2022/11/26 00:12:51;;;;;;;20.87;13.53;;;;;;;6.93;52.54;101860.00;5044455;28;20382;-75
2022/11/26 00:15:28;;;;;;;15.33;9.23;;;;;;;6.98;52.66;101856.03;5033187;28;20399;-74
2022/11/26 00:17:53;;;;;;;12.27;8.23;;;;;;;6.94;52.47;101864.31;5037107;28;20520;-74
2022/11/26 00:20:22;;;;;;;9.13;6.67;;;;;;;6.89;52.83;101865.50;5063627;28;20424;-74
2022/11/26 00:22:52;;;;;;;10.15;6.53;;;;;;;6.79;52.85;101863.69;5065613;28;20382;-74
2022/11/26 00:25:41;;;;;;;11.52;6.50;;;;;;;6.74;53.29;101856.13;5063549;28;20485;-74
2022/11/26 00:28:25;;;;;;;11.20;7.13;;;;;;;6.87;53.15;101858.66;5068275;28;20455;-74
2022/11/26 00:30:51;;;;;;;11.25;7.20;;;;;;;6.87;52.89;101864.78;5057872;28;20384;-75
2022/11/26 00:33:16;;;;;;;9.68;6.15;;;;;;;6.89;52.87;101851.47;5064424;28;20859;-74
2022/11/26 00:35:42;;;;;;;9.15;6.50;;;;;;;6.93;52.74;101870.53;5058175;28;20421;-74
2022/11/26 00:38:14;;;;;;;11.17;6.63;;;;;;;6.93;53.09;101867.91;5047198;28;20476;-74
2022/11/26 00:40:40;;;;;;;10.98;6.68;;;;;;;6.87;52.72;101862.13;5048646;28;20806;-74
2022/11/26 00:43:08;;;;;;;9.10;6.47;;;;;;;6.84;53.06;101867.66;5063821;28;20412;-74
2022/11/26 00:45:34;;;;;;;10.77;6.70;;;;;;;6.87;53.12;101875.31;5045738;28;20414;-74
2022/11/26 00:48:00;;;;;;;9.07;6.37;;;;;;;6.85;53.20;101871.13;5060028;28;20400;-74
2022/11/26 00:50:29;;;;;;;8.20;5.97;;;;;;;6.75;53.20;101876.25;5044281;28;20947;-74
2022/11/26 00:52:55;;;;;;;8.18;5.85;;;;;;;6.77;53.29;101879.63;5038015;28;20478;-74
2022/11/26 00:55:33;;;;;;;10.93;6.15;;;;;;;6.75;53.41;101880.69;5048326;28;20430;-75
2022/11/26 00:57:59;;;;;;;11.52;6.38;;;;;;;6.67;53.58;101882.09;5057073;28;20534;-75
2022/11/26 01:00:30;;;;;;;10.85;6.22;;;;;;;6.64;53.69;101877.06;5063743;28;20682;-75
2022/11/26 01:02:56;;;;;;;9.07;5.63;;;;;;;6.61;53.85;101877.31;5067924;28;20458;-75
2022/11/26 01:05:24;;;;;;;9.32;6.00;;;;;;;6.59;53.78;101868.69;5061405;28;20537;-74
2022/11/26 01:07:51;;;;;;;8.57;5.50;;;;;;;6.47;54.58;101880.13;5065087;28;20513;-75
2022/11/26 01:10:21;;;;;;;8.68;5.70;;;;;;;6.42;54.33;101872.56;5047202;28;20388;-75
2022/11/26 01:12:47;;;;;;;9.38;5.90;;;;;;;6.45;54.46;101871.50;5043023;28;20860;-75
2022/11/26 01:15:14;;;;;;;9.43;5.20;;;;;;;6.35;54.81;101878.41;5047348;28;20385;-75
2022/11/26 01:17:39;;;;;;;9.15;5.40;;;;;;;6.31;55.32;101881.25;5049235;28;20384;-75
2022/11/26 01:20:29;;;;;;;13.13;5.60;;;;;;;6.32;55.44;101880.31;5028170;28;20461;-75
2022/11/26 01:22:56;;;;;;;8.07;5.35;;;;;;;6.37;55.27;101882.59;5035539;28;20381;-75
2022/11/26 01:25:23;;;;;;;12.40;6.00;;;;;;;6.39;54.78;101887.75;5046794;28;20420;-75
2022/11/26 01:27:49;;;;;;;10.93;5.93;;;;;;;6.41;54.75;101886.69;5050232;28;20812;-75
2022/11/26 01:30:24;;;;;;;11.40;6.03;;;;;;;6.39;55.03;101887.75;5033580;28;20404;-75
2022/11/26 01:32:50;;;;;;;9.65;5.40;;;;;;;6.36;54.87;101877.47;5051004;28;20377;-75
2022/11/26 01:35:17;;;;;;;9.48;6.00;;;;;;;6.34;54.89;101874.94;5028443;28;20465;-75
2022/11/26 01:37:44;;;;;;;8.40;4.93;;;;;;;6.29;54.98;101882.34;5021242;28;20931;-75
2022/11/26 01:40:24;;;;;;;8.73;5.05;;;;;;;6.21;55.26;101892.59;5052560;28;20399;-75
2022/11/26 01:42:54;;;;;;;7.53;4.93;;;;;;;6.14;55.12;101886.94;5052488;28;20368;-75
2022/11/26 01:45:21;;;;;;;9.20;5.00;;;;;;;6.15;55.14;101893.03;5050434;28;20416;-75
2022/11/26 01:47:47;;;;;;;7.45;4.97;;;;;;;6.01;55.59;101883.50;5047153;28;21077;-75
2022/11/26 01:50:30;;;;;;;6.72;4.38;;;;;;;6.05;55.32;101882.31;5048856;28;20431;-75
2022/11/26 01:53:01;;;;;;;8.38;5.00;;;;;;;6.01;55.46;101870.34;5020776;28;20485;-75
2022/11/26 01:55:37;;;;;;;7.60;4.40;;;;;;;5.93;55.41;101876.16;5051545;28;20779;-75
2022/11/26 01:58:06;;;;;;;7.53;4.50;;;;;;;5.82;56.20;101869.03;5050656;28;20426;-74
2022/11/26 02:00:31;;;;;;;7.00;4.72;;;;;;;5.87;55.30;101868.69;5050889;28;20436;-74
2022/11/26 02:02:56;;;;;;;12.70;6.95;;;;;;;5.84;55.43;101882.06;5051822;28;20385;-74
2022/11/26 02:05:26;;;;;;;11.93;6.97;;;;;;;5.79;56.05;101884.19;5050989;28;20407;-74
2022/11/26 02:07:52;;;;;;;10.38;6.57;;;;;;;5.67;56.02;101876.22;5051989;28;20450;-74
2022/11/26 02:10:18;;;;;;;10.00;5.77;;;;;;;5.71;55.78;101876.84;5051337;28;20373;-75
2022/11/26 02:12:44;;;;;;;19.33;10.45;;;;;;;5.74;56.04;101877.47;5050957;28;20522;-75
2022/11/26 02:15:11;;;;;;;13.30;7.05;;;;;;;5.62;56.32;101878.34;5051071;28;20471;-74
2022/11/26 02:17:49;;;;;;;12.05;7.05;;;;;;;5.60;56.01;101882.88;5051229;28;20907;-75
2022/11/26 02:20:21;;;;;;;12.27;7.00;;;;;;;5.51;56.53;101883.50;5041414;28;20943;-75
2022/11/26 02:23:26;;;;;;;9.03;5.70;;;;;;;5.65;56.25;101890.44;5050617;28;20740;-74
2022/11/26 02:26:16;;;;;;;8.07;5.50;;;;;;;5.69;55.67;101886.63;5047878;28;20412;-74
2022/11/26 02:29:09;;;;;;;7.83;5.50;;;;;;;5.59;55.94;101889.06;5052092;28;20540;-74
2022/11/26 02:31:53;;;;;;;8.32;5.88;;;;;;;5.47;56.03;101885.50;5050599;28;20714;-74
2022/11/26 02:34:22;;;;;;;7.72;5.28;;;;;;;5.50;56.65;101893.19;5049312;28;20377;-74
2022/11/26 02:36:56;;;;;;;10.52;6.32;;;;;;;5.47;56.05;101890.75;5051500;28;20397;-74
2022/11/26 02:39:24;;;;;;;8.00;5.22;;;;;;;5.44;56.49;101893.63;5050356;28;20899;-74
2022/11/26 02:41:58;;;;;;;9.53;6.13;;;;;;;5.48;56.54;101889.84;5052057;28;20369;-74
2022/11/26 02:44:32;;;;;;;10.48;6.05;;;;;;;5.62;55.83;101890.63;5051253;28;20864;-74
2022/11/26 02:47:03;;;;;;;8.10;5.85;;;;;;;5.72;55.89;101896.94;5049410;28;20461;-74
2022/11/26 02:49:32;;;;;;;8.07;5.50;;;;;;;5.75;56.13;101902.00;5048061;28;20610;-74
2022/11/26 02:52:01;;;;;;;8.13;5.43;;;;;;;5.73;55.69;101907.34;5050813;28;20490;-74
2022/11/26 02:54:28;;;;;;;9.05;5.93;;;;;;;5.69;55.76;101900.63;5042006;28;20385;-75
2022/11/26 02:56:56;;;;;;;7.72;5.30;;;;;;;5.76;55.19;101906.28;5040028;28;20753;-74
2022/11/26 02:59:21;;;;;;;9.35;5.03;;;;;;;5.78;55.85;101903.53;5035173;28;20381;-74
2022/11/26 03:01:58;;;;;;;7.20;4.68;;;;;;;5.73;55.73;101917.03;5048884;28;20403;-74
2022/11/26 03:04:31;;;;;;;8.60;5.33;;;;;;;5.70;56.00;101910.19;5043767;28;20497;-74
2022/11/26 03:07:02;;;;;;;10.47;6.97;;;;;;;5.60;56.73;101913.56;5037561;28;20436;-74
2022/11/26 03:09:39;;;;;;;10.23;6.22;;;;;;;5.66;56.28;101919.25;5035697;28;20823;-74
2022/11/26 03:12:04;;;;;;;7.72;4.82;;;;;;;5.68;56.38;101909.47;5048719;28;20392;-74
2022/11/26 03:14:30;;;;;;;9.13;6.23;;;;;;;5.78;55.62;101920.19;5052704;28;20382;-74
2022/11/26 03:16:55;;;;;;;10.27;7.70;;;;;;;5.82;56.01;101916.38;5046483;28;20396;-74
2022/11/26 03:19:21;;;;;;;8.55;5.78;;;;;;;5.86;55.97;101917.00;5049397;28;20808;-74
2022/11/26 03:21:46;;;;;;;7.50;5.63;;;;;;;5.80;55.71;101918.28;5049323;28;20459;-74
2022/11/26 03:24:12;;;;;;;11.00;6.00;;;;;;;5.69;55.69;101919.06;5048830;28;20396;-74
2022/11/26 03:26:37;;;;;;;10.30;6.68;;;;;;;5.68;56.03;101919.16;5047196;28;20401;-74
2022/11/26 03:29:03;;;;;;;9.63;6.43;;;;;;;5.67;55.99;101925.34;5041188;28;20395;-74
2022/11/26 03:31:28;;;;;;;7.93;5.63;;;;;;;5.63;55.76;101922.09;5050752;28;20393;-75
2022/11/26 03:33:54;;;;;;;8.50;5.57;;;;;;;5.70;56.02;101939.13;5049351;28;20407;-74
2022/11/26 03:36:19;;;;;;;8.90;6.00;;;;;;;5.67;56.07;101930.63;5035989;28;20380;-75
2022/11/26 03:38:45;;;;;;;12.70;8.32;;;;;;;5.70;55.77;101928.59;5036893;28;20740;-74
2022/11/26 03:41:10;;;;;;;15.73;9.27;;;;;;;5.67;55.32;101930.63;5041564;28;20394;-74
2022/11/26 03:43:36;;;;;;;13.17;8.57;;;;;;;5.67;55.83;101947.25;5047511;28;20391;-74
2022/11/26 03:46:01;;;;;;;12.77;8.15;;;;;;;5.67;55.39;101949.03;5043868;28;20692;-74
2022/11/26 03:48:27;;;;;;;10.27;6.20;;;;;;;5.83;55.28;101949.63;5048211;28;20388;-74
2022/11/26 03:50:52;;;;;;;10.37;5.83;;;;;;;5.98;54.51;101965.31;5043180;28;20426;-74
2022/11/26 03:53:18;;;;;;;9.33;6.13;;;;;;;6.01;54.01;101963.31;5049007;28;20393;-74
2022/11/26 03:55:43;;;;;;;8.82;5.70;;;;;;;6.03;54.04;101969.31;5047962;28;20460;-74
2022/11/26 03:58:09;;;;;;;7.80;5.25;;;;;;;6.01;53.78;101984.38;5039988;28;20393;-74
2022/11/26 04:00:34;;;;;;;7.00;5.27;;;;;;;5.88;54.01;101979.09;5045087;28;20406;-74
2022/11/26 04:03:00;;;;;;;7.70;5.93;;;;;;;5.91;54.18;101983.31;5038445;28;20401;-74
2022/11/26 04:05:25;;;;;;;8.97;6.37;;;;;;;5.90;54.49;101989.53;5045450;28;20408;-77
2022/11/26 04:07:51;;;;;;;9.13;6.35;;;;;;;5.93;54.02;101990.16;5048816;28;20420;-76
2022/11/26 04:10:16;;;;;;;11.70;7.17;;;;;;;5.94;54.08;101997.09;5043382;28;20393;-74
2022/11/26 04:12:42;;;;;;;13.63;10.47;;;;;;;5.84;54.21;101997.84;5046622;28;20409;-74
2022/11/26 04:15:08;;;;;;;19.70;14.50;;;;;;;5.67;54.41;102012.16;5045020;28;20393;-75
2022/11/26 04:17:33;;;;;;;15.40;10.43;;;;;;;5.58;55.06;102016.25;5031363;28;20381;-74
2022/11/26 04:19:58;;;;;;;14.57;9.48;;;;;;;5.52;54.97;102006.19;5031664;28;20389;-75
2022/11/26 04:22:24;;;;;;;13.33;7.00;;;;;;;5.44;55.36;102009.34;5047553;28;20388;-74
2022/11/26 04:24:49;;;;;;;13.53;8.27;;;;;;;5.46;55.75;102014.50;5017137;28;20738;-76
2022/11/26 04:27:15;;;;;;;10.37;6.83;;;;;;;5.43;55.89;102006.81;5037214;28;20390;-74
2022/11/26 04:29:40;;;;;;;10.57;6.75;;;;;;;5.48;55.40;102010.81;5048748;28;20798;-75
2022/11/26 04:32:06;;;;;;;9.47;7.00;;;;;;;5.50;55.75;102015.97;5048215;28;20397;-75
2022/11/26 04:34:31;;;;;;;8.70;6.70;;;;;;;5.48;55.24;102021.31;5046168;28;21149;-75
2022/11/26 04:36:57;;;;;;;8.30;6.20;;;;;;;5.48;55.57;102031.84;5040263;28;20458;-75
2022/11/26 04:39:22;;;;;;;8.88;6.45;;;;;;;5.46;55.40;102020.59;5042416;28;20857;-75
2022/11/26 04:41:48;;;;;;;9.20;6.77;;;;;;;5.51;55.20;102028.16;5048540;28;20381;-76
2022/11/26 04:44:14;;;;;;;11.55;6.85;;;;;;;5.51;55.53;102031.66;5046480;28;20396;-75
2022/11/26 04:46:39;;;;;;;8.87;6.57;;;;;;;5.47;55.21;102024.06;5045288;28;20908;-75
2022/11/26 04:49:05;;;;;;;13.80;8.50;;;;;;;5.41;55.33;102032.38;5035297;28;20473;-75
2022/11/26 04:51:30;;;;;;;15.20;7.63;;;;;;;5.45;55.62;102042.56;5040308;28;20475;-75
2022/11/26 04:53:56;;;;;;;10.80;7.40;;;;;;;5.36;55.77;102043.19;5032438;28;20396;-75
2022/11/26 04:56:21;;;;;;;10.40;6.97;;;;;;;5.32;55.50;102041.72;5049106;28;20385;-75
2022/11/26 04:58:47;;;;;;;9.17;6.97;;;;;;;5.29;55.77;102048.00;5039575;28;20452;-74
2022/11/26 05:01:12;;;;;;;7.30;5.80;;;;;;;5.30;55.82;102041.81;5039340;28;20393;-74
2022/11/26 05:03:38;;;;;;;9.07;6.35;;;;;;;5.32;55.79;102054.88;5048310;28;20396;-74
2022/11/26 05:06:03;;;;;;;9.67;5.97;;;;;;;5.32;56.17;102062.75;5036229;28;20404;-75
2022/11/26 05:08:29;;;;;;;9.17;6.47;;;;;;;5.39;55.21;102058.78;5053510;28;20388;-74
2022/11/26 05:10:55;;;;;;;8.27;5.90;;;;;;;5.40;55.45;102057.81;5049069;28;20397;-75
2022/11/26 05:13:20;;;;;;;11.97;8.53;;;;;;;5.38;55.87;102061.50;5051149;28;20764;-76
2022/11/26 05:15:46;;;;;;;14.07;9.93;;;;;;;5.37;55.76;102068.56;5051631;28;20384;-76
2022/11/26 05:18:12;;;;;;;16.80;11.93;;;;;;;5.35;55.91;102062.56;5029659;28;20385;-74
2022/11/26 05:20:37;;;;;;;22.17;17.20;;;;;;;5.33;55.36;102065.28;5050850;28;20380;-74
2022/11/26 05:23:03;;;;;;;11.17;8.50;;;;;;;5.39;55.63;102068.47;5052728;28;20813;-74
2022/11/26 05:25:28;;;;;;;12.95;9.05;;;;;;;5.38;55.80;102066.75;5051683;28;21053;-74
2022/11/26 05:27:54;;;;;;;12.70;10.13;;;;;;;5.31;55.89;102064.56;5051637;28;20392;-74
2022/11/26 05:30:19;;;;;;;13.53;10.37;;;;;;;5.35;55.70;102073.06;5034687;28;20388;-74
2022/11/26 05:32:45;;;;;;;13.30;10.43;;;;;;;5.30;56.10;102062.84;5050216;28;20854;-75
2022/11/26 05:35:10;;;;;;;11.07;7.70;;;;;;;5.26;55.53;102068.44;5052160;28;20474;-74
2022/11/26 05:37:36;;;;;;;10.27;6.88;;;;;;;5.26;55.79;102077.16;5052927;28;20391;-74
2022/11/26 05:40:03;;;;;;;13.88;8.85;;;;;;;5.18;55.98;102079.44;5052150;28;20384;-74
2022/11/26 05:42:28;;;;;;;14.13;8.30;;;;;;;5.16;56.13;102078.69;5050794;28;20733;-76
2022/11/26 05:44:54;;;;;;;13.25;8.70;;;;;;;5.21;56.23;102071.34;5045295;28;20891;-75
2022/11/26 05:47:19;;;;;;;13.23;9.10;;;;;;;5.28;55.76;102079.69;5026437;28;20390;-76
2022/11/26 05:49:45;;;;;;;15.93;10.87;;;;;;;5.30;55.63;102083.88;5032736;28;20380;-75
2022/11/26 05:52:10;;;;;;;15.80;9.30;;;;;;;5.27;55.62;102091.97;5046917;28;20385;-75
2022/11/26 05:54:36;;;;;;;14.02;9.60;;;;;;;5.27;55.70;102085.88;5032386;28;20377;-74
2022/11/26 05:57:01;;;;;;;17.27;9.37;;;;;;;5.27;55.69;102083.25;5046320;28;21077;-74
2022/11/26 05:59:27;;;;;;;37.53;21.40;;;;;;;5.26;56.21;102076.31;5046101;28;20393;-75
2022/11/26 06:01:52;;;;;;;23.63;14.90;;;;;;;5.27;56.22;102089.34;5050044;28;20516;-75
2022/11/26 06:04:18;;;;;;;14.35;10.27;;;;;;;5.29;55.99;102095.34;5052986;28;20727;-74
2022/11/26 06:06:43;;;;;;;14.33;9.90;;;;;;;5.33;55.73;102095.97;5050423;28;20440;-75
2022/11/26 06:09:09;;;;;;;17.10;10.37;;;;;;;5.32;56.25;102092.50;5047237;28;20394;-75
2022/11/26 06:11:34;;;;;;;18.45;9.93;;;;;;;5.31;55.91;102098.72;5042090;28;20771;-75
2022/11/26 06:14:00;;;;;;;17.03;9.80;;;;;;;5.25;56.28;102096.50;5026186;28;20731;-75
2022/11/26 06:16:25;;;;;;;14.37;9.03;;;;;;;5.19;56.54;102102.16;5046819;28;20392;-75
2022/11/26 06:18:51;;;;;;;13.37;9.30;;;;;;;5.30;56.19;102110.19;5034960;28;21218;-75
2022/11/26 06:21:16;;;;;;;12.32;8.45;;;;;;;5.25;56.29;102111.44;5051815;28;20386;-74
2022/11/26 06:23:41;;;;;;;12.90;8.87;;;;;;;5.22;56.79;102107.22;5066161;28;20410;-75
2022/11/26 06:26:09;;;;;;;14.63;9.03;;;;;;;5.29;56.39;102113.75;5065544;28;20404;-75
2022/11/26 06:28:34;;;;;;;9.52;7.28;;;;;;;5.25;56.60;102111.44;5058683;28;20394;-76
2022/11/26 06:31:00;;;;;;;10.83;8.00;;;;;;;5.32;56.05;102108.28;5063044;28;20396;-75
2022/11/26 06:33:25;;;;;;;11.33;6.40;;;;;;;5.33;56.18;102117.88;5069891;28;20439;-76
2022/11/26 06:35:51;;;;;;;15.97;9.70;;;;;;;5.32;56.35;102124.06;5063138;28;20379;-74
2022/11/26 06:38:16;;;;;;;12.30;8.40;;;;;;;5.21;56.83;102128.34;5041465;28;20795;-75
2022/11/26 06:40:42;;;;;;;11.55;7.82;;;;;;;5.21;56.88;102128.34;5045677;28;20387;-76
2022/11/26 06:43:07;;;;;;;10.13;7.17;;;;;;;5.28;56.50;102124.38;5031307;28;20483;-75
2022/11/26 06:45:33;;;;;;;12.23;8.07;;;;;;;5.41;56.20;102125.25;5049873;28;20410;-76
2022/11/26 06:47:58;;;;;;;14.37;9.03;;;;;;;5.47;56.13;102127.47;5046226;28;20405;-76
2022/11/26 06:50:24;;;;;;;19.90;11.80;;;;;;;5.55;55.52;102135.69;5064742;28;20459;-76
2022/11/26 06:52:51;;;;;;;42.08;23.55;;;;;;;5.61;55.94;102123.09;5066864;28;21334;-75
2022/11/26 06:55:17;;;;;;;21.63;12.63;;;;;;;5.64;55.82;102138.66;5064377;28;20895;-75
2022/11/26 06:57:42;;;;;;;277.33;101.70;;;;;;;5.68;55.24;102142.78;5049551;28;20488;-75
2022/11/26 07:00:08;;;;;;;42.80;24.98;;;;;;;5.77;55.37;102136.88;5049406;28;20385;-76
2022/11/26 07:02:34;;;;;;;41.83;31.77;;;;;;;5.77;55.52;102136.88;5047239;28;20396;-75
2022/11/26 07:04:59;;;;;;;24.20;18.60;;;;;;;5.96;54.88;102146.19;5042983;28;20391;-76
2022/11/26 07:07:25;;;;;;;30.10;24.13;;;;;;;6.01;54.50;102144.94;5050892;28;20389;-75
2022/11/26 07:09:50;;;;;;;17.17;10.87;;;;;;;6.02;54.90;102143.16;5048472;28;21126;-75
2022/11/26 07:12:16;;;;;;;13.77;9.20;;;;;;;6.01;55.04;102144.94;5031004;28;20788;-75
2022/11/26 07:14:42;;;;;;;14.77;9.68;;;;;;;5.97;54.43;102140.81;5030884;28;20453;-76
2022/11/26 07:17:07;;;;;;;16.88;11.38;;;;;;;6.02;54.76;102141.34;5030868;28;20434;-76
2022/11/26 07:19:34;;;;;;;16.10;9.23;;;;;;;5.98;54.79;102150.41;5049635;28;20507;-75
2022/11/26 07:21:59;;;;;;;13.48;8.93;;;;;;;6.02;54.34;102151.88;5041215;28;20398;-75
2022/11/26 07:24:25;;;;;;;12.65;8.73;;;;;;;6.03;54.42;102152.72;5061063;28;20931;-76
2022/11/26 07:26:50;;;;;;;16.27;9.43;;;;;;;6.04;54.67;102150.00;5056814;28;20451;-76
2022/11/26 07:29:16;;;;;;;12.17;8.00;;;;;;;6.17;54.10;102157.88;5061015;28;20440;-75
2022/11/26 07:31:42;;;;;;;17.10;10.48;;;;;;;6.16;54.47;102160.63;5060075;28;20854;-77
2022/11/26 07:34:08;;;;;;;24.38;14.63;;;;;;;6.18;54.45;102151.69;5063712;28;20379;-77
2022/11/26 07:36:33;;;;;;;21.67;14.40;;;;;;;6.28;54.42;102151.88;5047580;28;20718;-76
2022/11/26 07:39:01;;;;;;;18.20;11.52;;;;;;;6.36;54.05;102165.38;5062956;28;20431;-76
2022/11/26 07:41:27;;;;;;;18.47;12.87;;;;;;;6.41;54.12;102165.91;5057472;28;20452;-75
2022/11/26 07:43:53;;;;;;;19.25;11.85;;;;;;;6.53;53.85;102166.81;5054422;28;20473;-75
2022/11/26 07:46:22;;;;;;;14.77;10.30;;;;;;;6.50;53.62;102170.53;5061792;28;20518;-75
2022/11/26 07:48:48;;;;;;;18.73;13.20;;;;;;;6.54;53.86;102173.78;5059255;28;20527;-75
2022/11/26 07:51:23;;;;;;;13.25;9.30;;;;;;;6.51;53.74;102182.72;5039766;28;20908;-76
2022/11/26 07:53:49;;;;;;;11.38;8.27;;;;;;;6.51;53.95;102180.09;5061083;28;20745;-75
2022/11/26 07:56:16;;;;;;;10.50;7.90;;;;;;;6.61;53.80;102182.94;5044742;28;20407;-77
2022/11/26 07:58:41;;;;;;;11.07;8.15;;;;;;;6.65;54.04;102175.66;5062069;28;20404;-75
2022/11/26 08:01:08;;;;;;;9.87;7.00;;;;;;;6.58;53.74;102190.22;5058197;28;20477;-76
2022/11/26 08:03:37;;;;;;;8.88;6.50;;;;;;;6.73;53.44;102183.84;5065641;28;20437;-76
2022/11/26 08:06:05;;;;;;;17.50;7.23;;;;;;;6.75;53.72;102174.03;5060307;28;21060;-75
2022/11/26 08:08:32;;;;;;;9.93;6.57;;;;;;;6.89;53.73;102194.97;5034306;28;20393;-76
2022/11/26 08:10:58;;;;;;;12.48;6.60;;;;;;;6.95;53.41;102187.59;5060805;28;20383;-77
2022/11/26 08:13:23;;;;;;;9.77;6.33;;;;;;;6.94;53.64;102192.03;5064226;28;20387;-76
2022/11/26 08:15:49;;;;;;;8.77;6.07;;;;;;;6.94;53.48;102191.19;5061562;28;20391;-76
2022/11/26 08:18:14;;;;;;;9.03;6.53;;;;;;;7.04;53.37;102190.44;5062752;28;20387;-78
2022/11/26 08:20:40;;;;;;;8.13;6.37;;;;;;;7.04;53.42;102192.19;5059038;28;20923;-76
2022/11/26 08:23:05;;;;;;;11.00;7.40;;;;;;;7.29;53.09;102201.81;5042718;28;20423;-76
2022/11/26 08:25:30;;;;;;;12.13;7.87;;;;;;;7.33;52.95;102191.88;5063289;28;20402;-76
2022/11/26 08:27:56;;;;;;;9.00;6.00;;;;;;;7.45;52.75;102186.56;5057580;28;20436;-78
2022/11/26 08:30:21;;;;;;;11.02;8.27;;;;;;;7.66;52.12;102196.47;5061173;28;20385;-77
2022/11/26 08:32:47;;;;;;;7.83;5.87;;;;;;;7.81;52.02;102183.94;5056128;28;20393;-76
2022/11/26 08:35:12;;;;;;;13.13;7.97;;;;;;;7.90;51.64;102190.31;5055270;28;20740;-76
2022/11/26 08:37:38;;;;;;;9.20;6.85;;;;;;;8.04;51.37;102188.31;5051366;28;20394;-75
2022/11/26 08:40:04;;;;;;;15.00;7.83;;;;;;;8.17;51.25;102188.19;5051852;28;20383;-75
2022/11/26 08:42:30;;;;;;;12.05;7.25;;;;;;;8.42;52.00;102189.81;5038171;28;20400;-78
2022/11/26 08:44:55;;;;;;;5.82;4.55;;;;;;;8.54;50.04;102184.56;5060188;28;20415;-76
2022/11/26 08:47:22;;;;;;;54.05;48.13;;;;;;;8.58;50.72;102181.53;5051950;28;20513;-75
2022/11/26 08:49:48;;;;;;;14.98;12.65;;;;;;;8.76;51.08;102179.25;5035791;28;20385;-76
2022/11/26 08:52:14;;;;;;;10.80;6.57;;;;;;;8.87;50.35;102177.56;5059341;28;20383;-75
2022/11/26 08:54:39;;;;;;;6.60;4.87;;;;;;;8.79;49.42;102173.72;5055250;28;20394;-77
2022/11/26 08:57:05;;;;;;;8.40;5.10;;;;;;;8.91;49.53;102178.97;5050502;28;20928;-76
2022/11/26 08:59:30;;;;;;;6.83;5.20;;;;;;;8.79;48.61;102173.72;5055973;28;20487;-77
2022/11/26 09:01:56;;;;;;;7.47;5.57;;;;;;;8.93;48.55;102175.25;5030861;28;20399;-76
2022/11/26 09:04:21;;;;;;;9.73;6.20;;;;;;;8.89;47.95;102172.97;5060805;28;20397;-75
2022/11/26 09:06:47;;;;;;;10.20;6.70;;;;;;;9.08;48.49;102180.28;5059702;28;20494;-77
2022/11/26 09:09:12;;;;;;;6.82;5.38;;;;;;;9.21;48.35;102177.47;5036985;28;20387;-75
2022/11/26 09:11:40;;;;;;;7.20;4.63;;;;;;;9.23;48.30;102179.03;5061771;28;20796;-78
2022/11/26 09:14:06;;;;;;;5.63;4.28;;;;;;;9.09;47.34;102180.16;5059796;28;20391;-78
2022/11/26 09:16:32;;;;;;;7.65;4.40;;;;;;;9.03;47.45;102178.00;5061403;28;20630;-75
2022/11/26 09:19:03;;;;;;;6.10;4.60;;;;;;;9.09;47.24;102187.25;5038541;28;20379;-77
2022/11/26 09:21:29;;;;;;;6.60;4.68;;;;;;;9.12;47.73;102185.19;5057028;28;20391;-76
2022/11/26 09:23:55;;;;;;;8.20;5.18;;;;;;;9.40;48.25;102195.31;5052503;28;20453;-76
2022/11/26 09:26:20;;;;;;;6.47;4.65;;;;;;;9.59;48.00;102192.84;5056212;28;20429;-76
2022/11/26 09:28:47;;;;;;;6.65;4.60;;;;;;;9.41;47.00;102187.25;5061020;28;20473;-76
2022/11/26 09:31:13;;;;;;;7.10;4.40;;;;;;;9.37;47.06;102188.50;5042805;28;20462;-76
2022/11/26 09:33:38;;;;;;;8.13;4.65;;;;;;;9.37;47.18;102193.78;5038912;28;20401;-75
2022/11/26 09:36:06;;;;;;;6.27;4.13;;;;;;;9.41;46.74;102189.91;5038487;28;20443;-77
2022/11/26 09:38:31;;;;;;;7.20;4.38;;;;;;;9.25;46.92;102195.63;5053320;28;20396;-77
2022/11/26 09:41:21;;;;;;;6.28;4.40;;;;;;;9.47;46.53;102183.28;5058071;28;20428;-76
2022/11/26 09:43:59;;;;;;;5.18;4.32;;;;;;;9.45;46.47;102187.84;5021566;28;20442;-77
2022/11/26 09:46:53;;;;;;;9.70;4.80;;;;;;;9.64;46.02;102188.00;5057155;28;20417;-76
2022/11/26 09:49:19;;;;;;;5.47;4.50;;;;;;;9.84;45.98;102191.66;5062454;28;20391;-76
2022/11/26 09:51:49;;;;;;;7.65;4.80;;;;;;;9.90;45.71;102182.34;5050062;28;20377;-76
2022/11/26 09:54:17;;;;;;;8.15;5.05;;;;;;;9.91;45.82;102179.56;5051304;28;20391;-76
2022/11/26 09:56:43;;;;;;;5.47;4.50;;;;;;;9.95;45.98;102175.69;5050974;28;20376;-76
2022/11/26 09:59:15;;;;;;;5.35;4.20;;;;;;;10.04;45.45;102186.47;5051483;28;20423;-76
2022/11/26 10:01:41;;;;;;;5.05;3.90;;;;;;;9.81;44.89;102178.66;5052776;28;20823;-77
2022/11/26 10:04:08;;;;;;;6.00;3.75;;;;;;;9.72;44.98;102179.44;5029860;28;20391;-75
2022/11/26 10:06:58;;;;;;;5.07;3.78;;;;;;;9.68;45.66;102186.78;5053003;28;20401;-77
2022/11/26 10:09:33;;;;;;;4.00;3.13;;;;;;;9.82;45.45;102185.63;5042198;28;20386;-76
2022/11/26 10:12:13;;;;;;;5.13;3.72;;;;;;;9.91;45.07;102178.72;5051831;28;20376;-80
2022/11/26 10:14:53;;;;;;;7.53;4.28;;;;;;;9.96;45.02;102181.84;5054548;28;20376;-78
2022/11/26 10:18:12;;;;;;;4.55;3.15;;;;;;;9.80;44.94;102179.63;5033664;28;20441;-77
2022/11/26 10:20:38;;;;;;;4.88;3.17;;;;;;;9.53;44.40;102186.25;4991618;28;20453;-76
2022/11/26 10:23:09;;;;;;;4.95;3.53;;;;;;;9.72;45.33;102190.00;5041163;28;20471;-76
2022/11/26 10:25:41;;;;;;;5.25;3.75;;;;;;;9.80;44.98;102178.81;5052270;28;20415;-77
2022/11/26 10:28:19;;;;;;;29.15;26.95;;;;;;;10.09;44.95;102174.50;5049625;28;20458;-76
2022/11/26 10:30:51;;;;;;;4.78;2.90;;;;;;;10.16;43.96;102176.66;5051541;28;20475;-77
2022/11/26 10:33:19;;;;;;;4.88;3.20;;;;;;;10.18;43.89;102185.31;5047662;28;20879;-75
2022/11/26 10:35:48;;;;;;;4.72;3.00;;;;;;;9.82;43.82;102171.56;5027121;28;20393;-75
2022/11/26 10:38:13;;;;;;;3.92;3.08;;;;;;;9.92;44.15;102164.50;5051818;28;21149;-78
2022/11/26 10:40:39;;;;;;;5.20;3.40;;;;;;;10.16;44.46;102164.25;5063077;28;20414;-76
2022/11/26 10:43:04;;;;;;;4.40;2.80;;;;;;;10.16;43.99;102174.00;5055947;28;20375;-76
2022/11/26 10:45:40;;;;;;;5.40;3.72;;;;;;;10.03;44.51;102160.94;5058649;28;20413;-75
2022/11/26 10:48:19;;;;;;;5.35;3.78;;;;;;;10.29;44.25;102159.56;5048653;28;20372;-75
2022/11/26 10:51:05;;;;;;;4.80;3.13;;;;;;;10.51;44.42;102157.72;5046369;28;20381;-75
2022/11/26 10:53:56;;;;;;;4.25;2.95;;;;;;;10.60;43.29;102166.69;5050661;28;20388;-75
2022/11/26 10:56:30;;;;;;;5.15;3.90;;;;;;;10.55;44.30;102158.28;5049551;28;20369;-75
2022/11/26 10:59:01;;;;;;;4.57;2.60;;;;;;;10.37;43.46;102155.44;5051235;28;20736;-75
2022/11/26 11:01:35;;;;;;;3.90;2.73;;;;;;;10.56;43.51;102155.50;5049579;28;20376;-74
2022/11/26 11:04:01;;;;;;;4.13;2.63;;;;;;;10.66;43.44;102144.91;5035020;28;20402;-76
2022/11/26 11:06:37;;;;;;;7.35;4.10;;;;;;;10.88;43.37;102152.66;5035204;28;20401;-76
2022/11/26 11:09:26;;;;;;;5.05;2.95;;;;;;;10.99;43.23;102150.88;5042489;28;20721;-76
2022/11/26 11:12:09;;;;;;;8.25;5.47;;;;;;;10.99;43.25;102149.06;5050717;28;20377;-77
2022/11/26 11:14:36;;;;;;;4.35;2.83;;;;;;;10.63;43.09;102148.69;5064774;28;20378;-76
2022/11/26 11:17:03;;;;;;;3.63;2.70;;;;;;;10.78;43.16;102143.84;5035936;28;20375;-75
2022/11/26 11:19:46;;;;;;;3.42;2.60;;;;;;;10.73;42.61;102145.22;5051453;28;20385;-76
2022/11/26 11:22:20;;;;;;;4.93;2.70;;;;;;;10.78;42.74;102146.50;5028049;28;20403;-75
2022/11/26 11:24:45;;;;;;;3.85;2.90;;;;;;;10.90;42.64;102144.56;4990180;28;20400;-75
2022/11/26 11:27:26;;;;;;;4.10;3.10;;;;;;;11.10;42.58;102135.66;5006121;28;20412;-76
2022/11/26 11:29:52;;;;;;;13.63;12.18;;;;;;;11.21;42.64;102144.47;4985821;28;20891;-77
2022/11/26 11:32:39;;;;;;;5.53;3.70;;;;;;;11.18;42.69;102139.44;5006011;28;20407;-76